Time;durP1;ratioP1;P1;durP2;ratioP2;P2;SDS_P1;SDS_P2;PMS_P1;PMS_P2;Temp;Humidity;BMP_temperature;BMP_pressure;BME280_temperature;BME280_humidity;BME280_pressure;Samples;Min_cycle;Max_cycle;Signal;HPM_P1;HPM_P2
2023/10/04 00:00:16;;;;;;;;;1.00;1.00;;;;;22.95;40.89;102460.28;4918232;28;45307;-54
2023/10/04 00:02:52;;;;;;;;;0.00;0.00;;;;;22.96;40.90;102462.00;4918297;28;45454;-51
2023/10/04 00:05:24;;;;;;;;;2.00;1.50;;;;;22.94;40.52;102459.41;4917883;28;46173;-51
2023/10/04 00:07:51;;;;;;;;;0.75;0.75;;;;;22.94;40.79;102463.84;4918701;28;45370;-54
2023/10/04 00:10:18;;;;;;;;;2.00;0.25;;;;;22.93;41.04;102452.38;4921321;28;45268;-48
2023/10/04 00:12:44;;;;;;;;;2.75;1.00;;;;;22.94;40.50;102450.63;4921535;28;45551;-52
2023/10/04 00:15:14;;;;;;;;;3.00;1.00;;;;;22.94;40.83;102453.25;4921341;28;45501;-48
2023/10/04 00:17:41;;;;;;;;;0.00;0.00;;;;;22.93;40.66;102443.59;4921271;28;45637;-49
2023/10/04 00:20:10;;;;;;;;;0.50;0.50;;;;;22.92;40.64;102450.69;4921203;28;45397;-49
2023/10/04 00:22:40;;;;;;;;;1.50;0.00;;;;;22.94;40.85;102455.91;4921318;28;45522;-55
2023/10/04 00:25:11;;;;;;;;;2.00;1.00;;;;;22.93;40.64;102438.31;4920965;28;47010;-56
2023/10/04 00:27:40;;;;;;;;;0.25;0.25;;;;;22.92;40.99;102441.88;4921017;28;45690;-56
2023/10/04 00:30:07;;;;;;;;;0.00;0.00;;;;;22.91;40.82;102437.50;4921160;28;45296;-55
2023/10/04 00:32:32;;;;;;;;;0.25;0.25;;;;;22.90;40.96;102435.78;4921203;28;45426;-54
2023/10/04 00:34:58;;;;;;;;;0.00;0.00;;;;;22.90;40.88;102433.16;4920085;28;48009;-57
2023/10/04 00:37:24;;;;;;;;;1.50;1.00;;;;;22.89;40.55;102437.59;4920772;28;45423;-48
2023/10/04 00:39:49;;;;;;;;;3.00;0.00;;;;;22.90;40.75;102443.72;4921166;28;45313;-57
2023/10/04 00:42:17;;;;;;;;;0.00;0.00;;;;;22.90;40.74;102439.31;4920981;28;45376;-51
2023/10/04 00:44:43;;;;;;;;;1.00;1.00;;;;;22.88;40.68;102435.88;4920744;28;47066;-58
2023/10/04 00:47:09;;;;;;;;;0.00;0.00;;;;;22.89;41.06;102444.63;4920678;28;45243;-57
2023/10/04 00:49:34;;;;;;;;;1.00;1.00;;;;;22.90;41.08;102444.59;4920867;28;45434;-49
2023/10/04 00:52:08;;;;;;;;;0.00;0.00;;;;;22.87;40.56;102442.06;4921209;28;45359;-51
2023/10/04 00:54:34;;;;;;;;;0.75;0.00;;;;;22.87;40.86;102444.72;4920620;28;46262;-53
2023/10/04 00:57:00;;;;;;;;;0.00;0.00;;;;;22.87;40.87;102435.94;4921081;28;45648;-58
2023/10/04 00:59:25;;;;;;;;;1.75;0.00;;;;;22.86;40.63;102445.63;4920736;28;45300;-49
2023/10/04 01:01:52;;;;;;;;;1.00;1.00;;;;;22.86;40.70;102443.00;4920835;28;45259;-51
2023/10/04 01:04:17;;;;;;;;;0.75;0.50;;;;;22.85;40.85;102436.84;4920323;28;46201;-57
2023/10/04 01:06:44;;;;;;;;;0.00;0.00;;;;;22.84;40.89;102437.78;4919988;28;59655;-54
2023/10/04 01:09:10;;;;;;;;;1.25;0.00;;;;;22.84;40.76;102439.53;4919320;28;45490;-54
2023/10/04 01:11:45;;;;;;;;;2.00;0.00;;;;;22.85;40.89;102450.06;4919528;28;45449;-57
2023/10/04 01:14:25;;;;;;;;;1.00;1.00;;;;;22.84;40.44;102448.34;4920298;28;46178;-56
2023/10/04 01:16:52;;;;;;;;;0.00;0.00;;;;;22.83;40.85;102436.06;4920429;28;45570;-54
2023/10/04 01:19:18;;;;;;;;;1.00;0.50;;;;;22.84;40.47;102444.81;4920223;28;45276;-52
2023/10/04 01:21:45;;;;;;;;;0.00;0.00;;;;;22.83;40.97;102453.69;4920541;28;45439;-47
2023/10/04 01:24:11;;;;;;;;;2.00;1.00;;;;;22.83;40.82;102456.31;4919305;28;47101;-49
2023/10/04 01:26:37;;;;;;;;;2.25;1.00;;;;;22.82;40.69;102455.47;4919883;28;45482;-48
2023/10/04 01:29:11;;;;;;;;;2.00;0.00;;;;;22.82;40.61;102459.91;4920599;28;45422;-49
2023/10/04 01:31:37;;;;;;;;;0.00;0.00;;;;;22.81;41.08;102459.03;4920243;28;45428;-45
2023/10/04 01:34:03;;;;;;;;;2.00;0.00;;;;;22.80;40.48;102457.31;4920353;28;46383;-48
2023/10/04 01:36:32;;;;;;;;;2.25;0.50;;;;;22.80;40.99;102454.66;4920136;28;45351;-46
2023/10/04 01:38:57;;;;;;;;;2.00;0.50;;;;;22.81;40.55;102452.91;4920192;28;45339;-50
2023/10/04 01:41:24;;;;;;;;;1.50;0.00;;;;;22.80;40.79;102451.19;4920223;28;45400;-50
2023/10/04 01:43:53;;;;;;;;;0.75;0.75;;;;;22.78;40.73;102451.22;4919779;28;47112;-43
2023/10/04 01:46:18;;;;;;;;;3.00;0.00;;;;;22.78;40.92;102442.44;4919823;28;45849;-49
2023/10/04 01:48:44;;;;;;;;;0.50;0.00;;;;;22.76;40.75;102437.22;4919988;28;45420;-50
2023/10/04 01:51:09;;;;;;;;;0.00;0.00;;;;;22.76;40.58;102434.59;4920088;28;45386;-51
2023/10/04 01:53:35;;;;;;;;;0.50;0.50;;;;;22.76;40.83;102424.00;4919949;28;46091;-52
2023/10/04 01:56:03;;;;;;;;;2.25;0.00;;;;;22.76;40.66;102429.28;4920002;28;45371;-51
2023/10/04 01:58:28;;;;;;;;;0.50;0.50;;;;;22.76;40.86;102423.13;4919888;28;45376;-54
2023/10/04 02:00:56;;;;;;;;;1.00;1.00;;;;;22.76;40.51;102420.50;4919897;28;45447;-54
2023/10/04 02:03:21;;;;;;;;;2.50;0.50;;;;;22.75;40.70;102417.00;4919547;28;45402;-54
2023/10/04 02:05:50;;;;;;;;;1.75;0.00;;;;;22.74;40.87;102407.34;4919725;28;45432;-50
2023/10/04 02:08:16;;;;;;;;;0.00;0.00;;;;;22.74;40.90;102410.00;4919654;28;45366;-51
2023/10/04 02:10:41;;;;;;;;;2.00;0.25;;;;;22.74;40.83;102403.81;4919795;28;45283;-53
2023/10/04 02:13:09;;;;;;;;;1.00;1.00;;;;;22.75;40.77;102402.91;4919733;28;46627;-51
2023/10/04 02:15:36;;;;;;;;;2.25;1.00;;;;;22.73;40.71;102395.06;4919695;28;45419;-50
2023/10/04 02:18:02;;;;;;;;;1.00;1.00;;;;;22.73;40.93;102400.34;4919584;28;45399;-49
2023/10/04 02:20:32;;;;;;;;;1.00;1.00;;;;;22.73;40.65;102405.63;4919837;28;45324;-49
2023/10/04 02:22:58;;;;;;;;;1.00;1.00;;;;;22.73;40.56;102405.63;4919168;28;46241;-52
2023/10/04 02:25:24;;;;;;;;;3.75;1.25;;;;;22.72;40.77;102409.19;4919236;28;45514;-49
2023/10/04 02:27:51;;;;;;;;;1.50;1.00;;;;;22.73;40.91;102416.19;4919092;28;45445;-53
2023/10/04 02:30:21;;;;;;;;;0.50;0.50;;;;;22.71;40.92;102404.81;4919078;28;45355;-54
2023/10/04 02:32:48;;;;;;;;;2.00;1.00;;;;;22.72;40.70;102403.91;4918902;28;46147;-51
2023/10/04 02:35:21;;;;;;;;;2.00;1.00;;;;;22.72;40.83;102403.03;4919185;28;45367;-52
2023/10/04 02:37:54;;;;;;;;;1.00;1.00;;;;;22.72;40.55;102393.31;4918965;28;45342;-50
2023/10/04 02:40:22;;;;;;;;;0.50;0.00;;;;;22.70;40.66;102392.53;4919379;28;45609;-48
2023/10/04 02:42:48;;;;;;;;;2.25;1.00;;;;;22.70;40.84;102396.03;4918796;28;46957;-53
2023/10/04 02:45:18;;;;;;;;;1.25;0.50;;;;;22.70;40.82;102400.44;4919028;28;45244;-54
2023/10/04 02:47:45;;;;;;;;;0.25;0.25;;;;;22.69;40.64;102401.38;4919186;28;45284;-58
2023/10/04 02:50:10;;;;;;;;;1.00;1.00;;;;;22.70;40.76;102403.09;4919214;28;45264;-50
2023/10/04 02:52:36;;;;;;;;;2.00;1.00;;;;;22.68;40.77;102394.34;4919132;28;46232;-52
2023/10/04 02:55:02;;;;;;;;;1.00;1.00;;;;;22.67;40.58;102405.84;4918982;28;45352;-55
2023/10/04 02:57:28;;;;;;;;;2.50;0.00;;;;;22.67;40.92;102413.78;4919072;28;45241;-50
2023/10/04 02:59:54;;;;;;;;;1.50;0.00;;;;;22.68;40.87;102423.44;4917889;28;45515;-51
2023/10/04 03:02:20;;;;;;;;;0.25;0.00;;;;;22.67;40.72;102408.50;4918698;28;45441;-55
2023/10/04 03:04:46;;;;;;;;;0.50;0.50;;;;;22.67;40.63;102416.41;4918796;28;45445;-51
2023/10/04 03:07:11;;;;;;;;;1.00;1.00;;;;;22.66;40.93;102412.94;4918804;28;45379;-51
2023/10/04 03:09:37;;;;;;;;;1.50;1.00;;;;;22.66;40.89;102417.34;4918862;28;49715;-53
2023/10/04 03:12:03;;;;;;;;;1.50;0.00;;;;;22.66;40.87;102419.97;4918589;28;46090;-51
2023/10/04 03:14:30;;;;;;;;;1.00;0.00;;;;;22.64;40.95;102420.06;4918661;28;45201;-53
2023/10/04 03:16:55;;;;;;;;;1.00;1.00;;;;;22.66;41.10;102430.56;4918711;28;45302;-52
2023/10/04 03:19:21;;;;;;;;;2.75;1.00;;;;;22.65;40.69;102436.78;4918231;28;55591;-50
2023/10/04 03:21:46;;;;;;;;;2.00;0.00;;;;;22.65;40.72;102431.50;4918442;28;45694;-55
2023/10/04 03:24:11;;;;;;;;;1.00;1.00;;;;;22.64;40.80;102424.50;4918346;28;45397;-46
2023/10/04 03:26:37;;;;;;;;;0.00;0.00;;;;;22.64;40.70;102424.50;4918946;28;45287;-50
2023/10/04 03:29:06;;;;;;;;;0.00;0.00;;;;;22.64;41.17;102429.78;4918892;28;45310;-48
2023/10/04 03:31:33;;;;;;;;;3.00;0.00;;;;;22.63;41.14;102433.34;4918200;28;46198;-49
2023/10/04 03:33:59;;;;;;;;;1.00;1.00;;;;;22.63;40.79;102428.06;4918465;28;45263;-51
2023/10/04 03:36:25;;;;;;;;;2.00;0.00;;;;;22.61;40.78;102412.22;4918532;28;45303;-54
2023/10/04 03:38:50;;;;;;;;;1.25;0.00;;;;;22.61;40.75;102411.38;4918617;28;45350;-50
2023/10/04 03:41:16;;;;;;;;;1.25;1.00;;;;;22.61;40.73;102412.22;4917202;28;48059;-51
2023/10/04 03:43:42;;;;;;;;;2.50;0.00;;;;;22.60;40.79;102407.88;4921602;28;45236;-48
2023/10/04 03:46:19;;;;;;;;;4.00;1.00;;;;;22.60;40.72;102410.50;4920836;28;45368;-52
2023/10/04 03:48:46;;;;;;;;;2.00;1.00;;;;;22.61;40.88;102411.38;4922165;28;45414;-54
2023/10/04 03:51:13;;;;;;;;;0.00;0.00;;;;;22.60;40.98;102417.59;4921951;28;45562;-51
2023/10/04 03:53:42;;;;;;;;;1.50;1.00;;;;;22.60;41.03;102413.16;4922017;28;45765;-53
2023/10/04 03:56:10;;;;;;;;;2.00;1.00;;;;;22.60;41.24;102417.59;4921677;28;45258;-49
2023/10/04 03:58:36;;;;;;;;;1.00;0.00;;;;;22.60;40.70;102407.03;4920970;28;45378;-48
2023/10/04 04:01:02;;;;;;;;;0.00;0.00;;;;;22.59;41.17;102410.59;4921286;28;46185;-50
2023/10/04 04:03:27;;;;;;;;;1.00;1.00;;;;;22.58;40.89;102406.22;4914035;28;45557;-51
2023/10/04 04:05:54;;;;;;;;;2.00;1.00;;;;;22.58;40.95;102406.22;4901861;29;58140;-51
2023/10/04 04:08:20;;;;;;;;;0.00;0.00;;;;;22.57;41.13;102401.84;4902649;29;45185;-51
2023/10/04 04:10:46;;;;;;;;;1.75;1.00;;;;;22.58;40.76;102411.50;4902181;28;46930;-54
2023/10/04 04:13:13;;;;;;;;;0.50;0.50;;;;;22.57;41.31;102418.59;4902445;28;45269;-52
2023/10/04 04:15:39;;;;;;;;;0.25;0.00;;;;;22.56;40.90;102411.56;4909484;28;45434;-48
2023/10/04 04:18:10;;;;;;;;;0.50;0.00;;;;;22.56;41.18;102416.84;4921635;28;45451;-52
2023/10/04 04:20:35;;;;;;;;;0.00;0.00;;;;;22.57;41.35;102420.34;4921069;28;46094;-54
2023/10/04 04:23:03;;;;;;;;;1.00;0.25;;;;;22.54;40.81;102414.25;4921072;28;45396;-52
2023/10/04 04:25:29;;;;;;;;;0.00;0.00;;;;;22.55;40.92;102421.25;4919973;28;45438;-54
2023/10/04 04:27:56;;;;;;;;;2.00;1.00;;;;;22.54;40.98;102414.25;4921151;28;45932;-54
2023/10/04 04:30:23;;;;;;;;;1.25;1.00;;;;;22.53;40.87;102427.53;4920925;28;46462;-51
2023/10/04 04:32:52;;;;;;;;;0.50;0.00;;;;;22.52;40.74;102425.81;4920997;28;45636;-53
2023/10/04 04:38:17;;;;;;;;;0.00;0.00;;;;;22.53;40.88;102422.25;4921386;28;45216;-54
2023/10/04 04:40:48;;;;;;;;;0.50;0.50;;;;;22.52;41.22;102431.97;4921225;28;45553;-54
2023/10/04 04:45:50;;;;;;;;;2.00;1.00;;;;;22.51;41.07;102426.72;4921127;28;45349;-48
2023/10/04 04:48:24;;;;;;;;;2.00;0.00;;;;;22.50;41.36;102422.38;4921181;28;45505;-49
2023/10/04 04:50:54;;;;;;;;;0.00;0.00;;;;;22.50;41.42;102425.88;4920587;28;46022;-52
2023/10/04 04:53:22;;;;;;;;;1.00;1.00;;;;;22.50;41.02;102420.59;4920448;28;45648;-49
2023/10/04 04:55:49;;;;;;;;;1.00;1.00;;;;;22.49;41.47;102413.59;4920533;28;45398;-52
2023/10/04 04:58:14;;;;;;;;;0.75;0.75;;;;;22.50;41.34;102419.72;4921124;28;45359;-53
2023/10/04 05:00:43;;;;;;;;;2.75;1.00;;;;;22.49;41.15;102415.38;4920473;28;45417;-54
2023/10/04 05:03:09;;;;;;;;;1.75;1.75;;;;;22.49;41.29;102410.09;4920436;28;45466;-56
2023/10/04 05:05:35;;;;;;;;;2.50;0.25;;;;;22.48;41.10;102403.94;4920684;28;45400;-57
2023/10/04 05:08:00;;;;;;;;;0.75;0.75;;;;;22.48;41.39;102408.38;4920752;28;45425;-54
2023/10/04 05:10:29;;;;;;;;;2.50;1.00;;;;;22.48;41.42;102414.50;4920176;28;45245;-54
2023/10/04 05:12:55;;;;;;;;;3.00;0.00;;;;;22.47;41.72;102420.72;4920303;28;45363;-50
2023/10/04 05:15:32;;;;;;;;;3.00;1.00;;;;;22.45;41.69;102411.97;4920433;28;45353;-57
2023/10/04 05:18:00;;;;;;;;;0.50;0.50;;;;;22.46;41.77;102416.34;4920599;28;45452;-54
2023/10/04 05:20:25;;;;;;;;;2.00;1.00;;;;;22.44;41.80;102418.19;4920396;28;46205;-53
2023/10/04 05:22:52;;;;;;;;;1.00;1.00;;;;;22.45;41.66;102409.34;4920310;28;45225;-55
2023/10/04 05:25:20;;;;;;;;;2.00;1.00;;;;;22.45;41.76;102414.63;4920779;28;45302;-52
2023/10/04 05:27:48;;;;;;;;;3.00;1.00;;;;;22.44;41.63;102415.53;4920842;28;45319;-52
2023/10/04 05:30:15;;;;;;;;;0.00;0.00;;;;;22.43;42.08;102418.25;4920380;28;46234;-49
2023/10/04 05:32:45;;;;;;;;;3.00;1.00;;;;;22.42;41.58;102420.03;4920145;28;45283;-52
2023/10/04 05:35:14;;;;;;;;;3.75;1.00;;;;;22.42;41.58;102430.63;4920354;28;45327;-51
2023/10/04 05:37:44;;;;;;;;;2.75;1.00;;;;;22.42;41.85;102429.72;4920256;28;45608;-50
2023/10/04 05:40:16;;;;;;;;;1.00;0.75;;;;;22.40;41.59;102427.13;4919952;28;45411;-50
2023/10/04 05:42:46;;;;;;;;;1.00;1.00;;;;;22.39;41.77;102423.59;4919942;28;45252;-50
2023/10/04 05:45:12;;;;;;;;;1.75;1.00;;;;;22.38;41.71;102418.38;4919944;28;45363;-55
2023/10/04 05:47:40;;;;;;;;;0.50;0.50;;;;;22.38;41.53;102428.97;4918794;28;45390;-48
2023/10/04 05:50:17;;;;;;;;;1.00;1.00;;;;;22.37;41.81;102421.94;4919645;28;45421;-50
2023/10/04 05:52:46;;;;;;;;;2.50;1.00;;;;;22.36;41.92;102409.66;4919508;28;45615;-52
2023/10/04 05:55:12;;;;;;;;;1.00;1.00;;;;;22.36;41.93;102409.66;4918404;28;45483;-54
2023/10/04 05:57:37;;;;;;;;;4.75;1.00;;;;;22.35;41.92;102402.66;4919719;28;45500;-54
2023/10/04 06:00:21;;;;;;;;;3.00;1.00;;;;;22.35;41.79;102402.66;4917971;28;46755;-56
2023/10/04 06:02:48;;;;;;;;;1.25;1.00;;;;;22.35;41.67;102419.38;4919710;28;45345;-54
2023/10/04 06:05:14;;;;;;;;;1.50;1.50;;;;;22.34;41.60;102427.34;4917565;28;45277;-53
2023/10/04 06:07:39;;;;;;;;;1.00;1.00;;;;;22.35;41.50;102429.06;4919244;28;45405;-53
2023/10/04 06:10:05;;;;;;;;;2.25;2.00;;;;;22.35;41.89;102434.34;4919189;28;45286;-55
2023/10/04 06:12:30;;;;;;;;;3.75;1.25;;;;;22.34;41.88;102427.34;4918015;28;46139;-52
2023/10/04 06:14:57;;;;;;;;;2.50;2.00;;;;;22.33;41.66;102433.53;4919560;28;45700;-49
2023/10/04 06:17:23;;;;;;;;;2.50;2.00;;;;;22.33;41.82;102428.25;4919405;28;45329;-51
2023/10/04 06:19:48;;;;;;;;;1.50;1.50;;;;;22.33;41.27;102434.41;4918083;28;46570;-51
2023/10/04 06:22:13;;;;;;;;;2.25;1.75;;;;;22.33;41.48;102436.19;4919047;28;47097;-52
2023/10/04 06:24:39;;;;;;;;;6.75;1.00;;;;;22.32;41.77;102437.97;4919169;28;45377;-53
2023/10/04 06:27:04;;;;;;;;;3.00;1.00;;;;;22.32;41.80;102437.13;4917884;28;45437;-55
2023/10/04 06:29:30;;;;;;;;;3.00;2.00;;;;;22.30;41.78;102438.97;4918974;28;46021;-50
2023/10/04 06:31:55;;;;;;;;;2.00;1.00;;;;;22.31;41.67;102435.41;4918448;28;56667;-52
2023/10/04 06:34:22;;;;;;;;;3.00;1.25;;;;;22.32;42.04;102431.84;4919428;28;45454;-53
2023/10/04 06:36:49;;;;;;;;;1.25;0.50;;;;;22.30;41.95;102437.16;4919486;28;45462;-55
2023/10/04 06:39:14;;;;;;;;;1.00;1.00;;;;;22.29;41.81;102440.72;4918457;28;46997;-52
2023/10/04 06:41:40;;;;;;;;;3.00;2.00;;;;;22.31;41.75;102440.69;4918731;28;45308;-54
2023/10/04 06:44:07;;;;;;;;;3.00;1.25;;;;;22.31;41.89;102443.34;4918890;28;45433;-53
2023/10/04 06:46:32;;;;;;;;;1.00;1.00;;;;;22.30;41.67;102447.72;4919011;28;45307;-53
2023/10/04 06:48:58;;;;;;;;;0.25;0.25;;;;;22.31;41.56;102449.47;4918753;28;45391;-56
2023/10/04 06:51:23;;;;;;;;;0.25;0.25;;;;;22.30;42.09;102446.88;4917488;28;45352;-44
2023/10/04 06:53:49;;;;;;;;;2.25;1.00;;;;;22.30;42.11;102450.38;4919042;28;45425;-56
2023/10/04 06:56:15;;;;;;;;;2.50;1.75;;;;;22.30;41.52;102460.94;4918830;28;45311;-53
2023/10/04 06:58:41;;;;;;;;;2.75;2.00;;;;;22.32;41.82;102458.25;4918444;28;45414;-48
2023/10/04 07:01:06;;;;;;;;;1.00;1.00;;;;;22.32;41.78;102455.63;4918492;28;45398;-49
2023/10/04 07:03:32;;;;;;;;;1.00;1.00;;;;;22.32;42.00;102458.25;4918537;28;45378;-48
2023/10/04 07:05:57;;;;;;;;;3.00;1.50;;;;;22.32;42.10;102467.03;4918802;28;45396;-49
2023/10/04 07:08:32;;;;;;;;;2.00;2.00;;;;;22.32;41.62;102472.31;4918634;28;46319;-48
2023/10/04 07:11:00;;;;;;;;;3.00;1.00;;;;;22.32;41.89;102472.31;4918347;28;45380;-49
2023/10/04 07:13:25;;;;;;;;;2.00;1.00;;;;;22.32;41.70;102476.75;4918616;28;45229;-45
2023/10/04 07:15:51;;;;;;;;;5.25;2.00;;;;;22.33;41.93;102473.16;4918993;28;45553;-50
2023/10/04 07:18:16;;;;;;;;;2.50;1.00;;;;;22.32;41.74;102477.59;4920724;28;47131;-51
2023/10/04 07:20:42;;;;;;;;;4.25;2.00;;;;;22.33;41.79;102474.03;4921847;28;45328;-48
2023/10/04 07:23:10;;;;;;;;;3.50;1.50;;;;;22.33;41.75;102479.31;4920504;28;45226;-50
2023/10/04 07:25:55;;;;;;;;;2.50;1.75;;;;;22.33;41.79;102471.41;4922113;28;45361;-49
2023/10/04 07:28:24;;;;;;;;;2.00;2.00;;;;;22.34;41.86;102485.47;4922095;28;45387;-52
2023/10/04 07:30:50;;;;;;;;;4.00;2.00;;;;;22.33;41.64;102481.97;4921996;28;45334;-54
2023/10/04 07:33:16;;;;;;;;;4.50;3.00;;;;;22.34;42.01;102482.81;4921943;28;45204;-50
2023/10/04 07:35:41;;;;;;;;;1.00;1.00;;;;;22.34;41.73;102488.09;4922119;28;45165;-54
2023/10/04 07:38:07;;;;;;;;;3.50;3.00;;;;;22.33;42.02;102489.88;4921741;28;45338;-48
2023/10/04 07:40:34;;;;;;;;;2.50;2.00;;;;;22.35;41.95;102495.09;4921736;28;45401;-51
2023/10/04 07:43:01;;;;;;;;;3.00;1.00;;;;;22.34;41.98;102502.19;4921646;28;45411;-51
2023/10/04 07:45:30;;;;;;;;;3.25;3.00;;;;;22.35;41.76;102505.66;4921899;28;45394;-47
2023/10/04 07:47:56;;;;;;;;;3.00;2.75;;;;;22.36;41.93;102499.47;4921819;28;47160;-46
2023/10/04 07:50:25;;;;;;;;;1.00;1.00;;;;;22.35;41.92;102495.09;4921753;28;45382;-51
2023/10/04 07:52:56;;;;;;;;;5.50;1.50;;;;;22.35;41.82;102503.03;4921441;28;45562;-51
2023/10/04 07:55:24;;;;;;;;;2.50;2.50;;;;;22.36;41.98;102518.84;4922196;28;45252;-50
2023/10/04 07:57:58;;;;;;;;;3.25;1.75;;;;;22.37;41.39;102511.78;4921375;28;46955;-48
2023/10/04 08:00:24;;;;;;;;;5.00;3.75;;;;;22.38;41.68;102513.50;4921645;28;45388;-50
2023/10/04 08:02:50;;;;;;;;;5.00;2.00;;;;;22.39;41.60;102515.22;4921426;28;45368;-50
2023/10/04 08:05:23;;;;;;;;;3.00;1.00;;;;;22.38;41.92;102519.63;4921673;28;45499;-54
2023/10/04 08:07:54;;;;;;;;;3.50;2.00;;;;;22.39;41.63;102517.88;4921241;28;45552;-55
2023/10/04 08:10:25;;;;;;;;;2.00;2.00;;;;;22.40;41.84;102522.22;4921271;28;45773;-51
2023/10/04 08:12:56;;;;;;;;;2.25;1.75;;;;;22.41;41.59;102524.00;4921501;28;45315;-54
2023/10/04 08:15:22;;;;;;;;;2.50;2.50;;;;;22.42;41.88;102527.47;4921612;28;45338;-49
2023/10/04 08:17:48;;;;;;;;;2.00;2.00;;;;;22.43;41.97;102535.38;4921209;28;46145;-53
2023/10/04 08:20:18;;;;;;;;;3.00;2.00;;;;;22.43;41.59;102524.81;4921043;28;45459;-49
2023/10/04 08:22:44;;;;;;;;;2.00;2.00;;;;;22.43;41.94;102524.81;4921301;28;45441;-46
2023/10/04 08:25:18;;;;;;;;;4.25;2.75;;;;;22.43;41.67;102516.00;4921358;28;45627;-52
2023/10/04 08:27:45;;;;;;;;;6.75;2.00;;;;;22.43;41.56;102516.88;4921094;28;45966;-48
2023/10/04 08:30:12;;;;;;;;;4.50;2.50;;;;;22.44;41.89;102518.56;4918883;28;45699;-52
2023/10/04 08:32:41;;;;;;;;;2.00;1.75;;;;;22.44;41.83;102513.28;4921167;28;45214;-51
2023/10/04 18:29:20;;;;;;;;;42.50;32.25;;;;;22.89;40.46;102263.09;4898774;29;45468;-37
2023/10/04 18:31:45;;;;;;;;;34.75;30.50;;;;;22.93;40.28;102269.09;4900558;28;45384;-40
2023/10/04 18:34:10;;;;;;;;;45.00;33.00;;;;;22.94;40.09;102265.53;4899980;28;46299;-40
2023/10/04 18:36:37;;;;;;;;;40.00;30.33;;;;;22.95;40.46;102269.91;4899667;29;52542;-41
2023/10/04 18:39:02;;;;;;;;;32.00;24.50;;;;;22.97;40.37;102262.78;4900166;29;45335;-38
2023/10/04 18:41:30;;;;;;;;;31.00;25.75;;;;;22.98;40.18;102265.34;4900554;29;45221;-40
2023/10/04 18:43:56;;;;;;;;;31.75;24.50;;;;;23.01;40.17;102269.63;4899974;28;46179;-37
2023/10/04 18:46:21;;;;;;;;;35.50;23.75;;;;;22.99;40.19;102272.34;4899098;29;45453;-37
2023/10/04 18:48:46;;;;;;;;;26.25;21.75;;;;;22.98;40.19;102275.91;4899612;29;50933;-41
2023/10/04 18:51:12;;;;;;;;;22.25;20.75;;;;;22.98;40.40;102275.06;4899887;29;45581;-38
2023/10/04 18:53:38;;;;;;;;;24.00;17.50;;;;;22.95;40.32;102276.03;4898896;29;46527;-40
2023/10/04 18:56:03;;;;;;;;;24.50;19.00;;;;;22.94;40.10;102276.13;4899137;28;45326;-40
2023/10/04 18:58:29;;;;;;;;;23.25;18.25;;;;;22.92;40.02;102273.56;4895273;28;45517;-39
2023/10/04 19:00:54;;;;;;;;;22.00;14.33;;;;;22.91;39.77;102279.75;4895060;29;50460;-39
2023/10/04 19:03:19;;;;;;;;;17.50;16.25;;;;;22.89;39.77;102278.09;4898856;29;57977;-38
2023/10/04 19:05:47;;;;;;;;;15.75;13.75;;;;;22.89;40.14;102280.72;4899504;28;45378;-39
2023/10/04 19:08:12;;;;;;;;;17.25;13.75;;;;;22.85;40.04;102272.94;4899625;28;45295;-38
2023/10/04 19:10:37;;;;;;;;;17.50;14.50;;;;;22.84;39.88;102265.94;4900120;28;45497;-36
2023/10/04 19:13:06;;;;;;;;;18.75;13.25;;;;;22.83;39.94;102266.00;4898842;29;45286;-41
2023/10/04 19:15:32;;;;;;;;;15.00;12.25;;;;;22.83;39.86;102272.16;4899689;29;45816;-36
2023/10/04 19:17:59;;;;;;;;;19.00;13.50;;;;;22.80;40.35;102264.34;4900138;29;45396;-39
2023/10/04 19:20:25;;;;;;;;;15.25;13.25;;;;;22.81;39.74;102270.50;4899614;28;45322;-40
2023/10/04 19:22:50;;;;;;;;;16.00;11.75;;;;;22.79;40.08;102253.84;4899101;28;45499;-37
2023/10/04 19:25:17;;;;;;;;;14.25;10.25;;;;;22.76;40.27;102252.19;4899594;29;45445;-44
2023/10/04 19:27:45;;;;;;;;;14.25;12.00;;;;;22.77;40.10;102255.69;4898989;28;45445;-43
2023/10/04 19:30:12;;;;;;;;;14.75;10.00;;;;;22.75;40.39;102254.88;4897385;28;45463;-45
2023/10/04 19:32:38;;;;;;;;;12.50;10.75;;;;;22.75;39.92;102257.53;4898635;29;45496;-43
2023/10/04 19:35:07;;;;;;;;;13.50;10.25;;;;;22.74;40.10;102259.34;4898497;29;45359;-43
2023/10/04 19:37:33;;;;;;;;;16.50;12.00;;;;;22.75;40.28;102252.25;4897552;29;45403;-42
2023/10/04 19:39:59;;;;;;;;;12.00;10.50;;;;;22.72;40.18;102247.09;4899364;29;45470;-44
2023/10/04 19:42:25;;;;;;;;;9.50;7.25;;;;;22.72;40.14;102247.09;4898434;29;46486;-41
2023/10/04 19:44:52;;;;;;;;;12.75;10.25;;;;;22.71;40.07;102251.53;4898531;29;45581;-43
2023/10/04 19:47:18;;;;;;;;;7.50;6.50;;;;;22.68;39.90;102251.66;4898496;28;45324;-45
2023/10/04 19:49:45;;;;;;;;;9.25;7.00;;;;;22.69;40.09;102256.88;4899003;29;45351;-45
2023/10/04 19:52:11;;;;;;;;;12.75;8.75;;;;;22.68;40.01;102259.56;4898579;29;45426;-42
2023/10/04 19:54:38;;;;;;;;;10.25;8.00;;;;;22.68;39.95;102264.84;4898440;29;45842;-40
2023/10/04 19:57:04;;;;;;;;;8.00;7.00;;;;;22.67;40.25;102269.31;4898776;29;45181;-44
2023/10/04 19:59:30;;;;;;;;;8.25;7.50;;;;;22.67;40.19;102271.06;4898781;29;45224;-40
2023/10/04 20:01:55;;;;;;;;;8.75;7.00;;;;;22.67;40.08;102268.41;4897311;29;46990;-46
2023/10/04 20:04:22;;;;;;;;;8.00;6.75;;;;;22.66;39.93;102266.69;4898394;29;45260;-48
2023/10/04 20:06:48;;;;;;;;;7.00;5.00;;;;;22.66;40.27;102266.69;4898755;29;45314;-45
2023/10/04 20:09:20;;;;;;;;;5.25;4.00;;;;;22.65;40.30;102265.84;4897629;29;45667;-47
2023/10/04 20:11:45;;;;;;;;;6.75;5.00;;;;;22.65;39.87;102267.66;4898358;29;46534;-45
2023/10/04 20:14:10;;;;;;;;;6.50;5.50;;;;;22.65;39.83;102265.00;4898489;29;45361;-46
2023/10/04 20:16:36;;;;;;;;;9.00;5.33;;;;;22.65;40.02;102275.59;4897641;29;62109;-42
2023/10/04 20:19:03;;;;;;;;;8.50;6.50;;;;;22.64;39.98;102274.72;4897583;29;45578;-43
2023/10/04 20:21:28;;;;;;;;;11.50;7.25;;;;;22.64;39.95;102280.00;4897182;28;45520;-44
2023/10/04 20:23:54;;;;;;;;;11.25;6.75;;;;;22.64;39.94;102271.22;4896319;29;55317;-45
2023/10/04 20:26:19;;;;;;;;;6.50;5.00;;;;;22.66;39.84;102277.28;4900584;28;45400;-45
2023/10/04 20:28:44;;;;;;;;;7.00;6.25;;;;;22.64;39.82;102266.78;4916235;28;45346;-43
2023/10/04 20:31:09;;;;;;;;;11.75;6.75;;;;;22.64;40.03;102261.50;4901417;28;45354;-42
2023/10/04 20:33:36;;;;;;;;;6.75;6.00;;;;;22.63;40.03;102258.94;4900883;29;50519;-42
2023/10/04 20:36:01;;;;;;;;;7.00;6.00;;;;;22.63;39.96;102251.84;4902004;28;45349;-41
2023/10/04 20:38:29;;;;;;;;;5.50;5.50;;;;;22.62;40.00;102252.75;4901288;28;45336;-42
2023/10/04 20:40:56;;;;;;;;;8.50;5.00;;;;;22.63;40.24;102254.47;4900059;29;46389;-45
2023/10/04 20:43:23;;;;;;;;;9.50;4.25;;;;;22.64;40.21;102255.38;4901710;28;45405;-42
2023/10/04 20:45:49;;;;;;;;;5.50;5.50;;;;;22.62;40.04;102252.75;4902060;28;45869;-47
2023/10/04 20:48:15;;;;;;;;;7.25;6.25;;;;;22.62;39.73;102258.03;4900957;29;45469;-47
2023/10/04 20:50:41;;;;;;;;;7.00;4.25;;;;;22.63;39.90;102264.22;4901734;29;45290;-48
2023/10/04 20:53:08;;;;;;;;;5.00;3.50;;;;;22.61;39.93;102266.91;4901708;28;45791;-49
2023/10/04 20:55:33;;;;;;;;;4.50;4.25;;;;;22.61;40.21;102268.69;4902027;28;45267;-49
2023/10/04 20:57:59;;;;;;;;;6.00;5.00;;;;;22.62;40.00;102267.78;4901874;29;45464;-48
2023/10/04 21:00:25;;;;;;;;;4.75;4.75;;;;;22.61;39.86;102255.47;4901552;28;46388;-48
2023/10/04 21:02:51;;;;;;;;;3.00;3.00;;;;;22.62;40.04;102257.19;4901602;28;45204;-47
2023/10/04 21:05:20;;;;;;;;;5.00;5.00;;;;;22.62;40.05;102259.84;4901588;28;45376;-47
2023/10/04 21:07:45;;;;;;;;;10.75;5.00;;;;;22.60;40.36;102249.31;4901771;28;45943;-45
2023/10/04 21:10:11;;;;;;;;;7.25;5.25;;;;;22.61;40.23;102255.47;4901270;29;45716;-45
2023/10/04 21:12:37;;;;;;;;;7.50;4.00;;;;;22.60;39.86;102246.69;4901512;29;45340;-48
2023/10/04 21:15:03;;;;;;;;;6.50;6.00;;;;;22.59;40.00;102252.03;4901654;28;45237;-48
2023/10/04 21:17:29;;;;;;;;;7.00;5.00;;;;;22.59;40.13;102247.63;4901872;28;45230;-47
2023/10/04 21:19:54;;;;;;;;;5.50;4.00;;;;;22.59;40.01;102246.75;4901230;29;45308;-44
2023/10/04 21:22:21;;;;;;;;;7.00;4.00;;;;;22.59;40.19;102244.97;4900222;29;46184;-43